createdAt,value
2022-12-31T00:00:22.101Z,99411.47
2022-12-31T00:02:04.472Z,99413.50
2022-12-31T00:03:46.693Z,99421.16
2022-12-31T00:05:33.857Z,99425.69
2022-12-31T00:07:15.214Z,99426.72
2022-12-31T00:08:58.296Z,99425.59
2022-12-31T00:10:41.230Z,99422.59
2022-12-31T00:12:22.578Z,99427.03
2022-12-31T00:14:05.001Z,99432.84
2022-12-31T00:15:46.375Z,99419.53
2022-12-31T00:17:27.666Z,99422.81
2022-12-31T00:19:11.079Z,99424.72
2022-12-31T00:20:52.401Z,99435.47
2022-12-31T00:22:33.889Z,99418.00
2022-12-31T00:24:15.248Z,99433.34
2022-12-31T00:25:56.530Z,99419.91
2022-12-31T00:27:37.817Z,99421.31
2022-12-31T00:29:19.092Z,99401.34
2022-12-31T00:31:09.531Z,99419.56
2022-12-31T00:32:50.855Z,99417.44
2022-12-31T00:34:32.415Z,99428.41
2022-12-31T00:36:17.870Z,99430.19
2022-12-31T00:37:59.252Z,99425.91
2022-12-31T00:39:40.624Z,99434.66
2022-12-31T00:41:23.500Z,99426.09
2022-12-31T00:43:04.795Z,99441.28
2022-12-31T00:44:46.113Z,99433.56
2022-12-31T00:46:27.558Z,99438.81
2022-12-31T00:48:08.909Z,99439.69
2022-12-31T00:49:50.286Z,99441.97
2022-12-31T00:51:31.874Z,99433.69
2022-12-31T00:53:13.472Z,99444.78
2022-12-31T00:54:54.770Z,99450.28
2022-12-31T00:56:36.070Z,99453.94
2022-12-31T00:58:17.395Z,99442.53
2022-12-31T00:59:58.760Z,99461.06
2022-12-31T01:01:41.706Z,99452.22
2022-12-31T01:03:23.647Z,99456.38
2022-12-31T01:05:05.623Z,99464.75
2022-12-31T01:06:47.735Z,99463.88
2022-12-31T01:08:29.083Z,99455.56
2022-12-31T01:10:10.772Z,99467.88
2022-12-31T01:11:52.151Z,99472.59
2022-12-31T01:13:34.173Z,99481.25
2022-12-31T01:15:15.464Z,99483.25
2022-12-31T01:16:56.830Z,99478.34
2022-12-31T01:18:39.054Z,99471.84
2022-12-31T01:20:20.401Z,99479.09
2022-12-31T01:22:01.736Z,99485.31
2022-12-31T01:23:43.441Z,99477.66
2022-12-31T01:25:24.736Z,99485.25
2022-12-31T01:27:06.081Z,99478.53
2022-12-31T01:28:47.649Z,99483.63
2022-12-31T01:30:29.262Z,99494.56
2022-12-31T01:32:10.559Z,99492.44
2022-12-31T01:33:53.014Z,99494.81
2022-12-31T01:35:36.097Z,99500.53
2022-12-31T01:37:17.377Z,99510.72
2022-12-31T01:39:00.285Z,99513.56
2022-12-31T01:40:41.750Z,99508.56
2022-12-31T01:42:23.030Z,99501.31
2022-12-31T01:44:13.492Z,99519.16
2022-12-31T01:45:54.987Z,99496.53
2022-12-31T01:47:43.643Z,99505.72
2022-12-31T01:49:29.111Z,99537.66
2022-12-31T01:51:10.895Z,99520.25
2022-12-31T01:52:56.809Z,99534.19
2022-12-31T01:54:42.968Z,99522.97
2022-12-31T01:56:24.711Z,99519.63
2022-12-31T01:58:20.042Z,99522.41
2022-12-31T02:00:01.707Z,99520.31
2022-12-31T02:01:44.510Z,99506.34
2022-12-31T02:03:28.266Z,99516.94
2022-12-31T02:05:18.113Z,99529.69
2022-12-31T02:07:05.301Z,99531.16
2022-12-31T02:08:47.533Z,99516.66
2022-12-31T02:10:28.960Z,99512.03
2022-12-31T02:12:10.621Z,99519.03
2022-12-31T02:13:58.323Z,99514.06
2022-12-31T02:15:43.157Z,99518.16
2022-12-31T02:17:34.235Z,99499.31
2022-12-31T02:19:37.539Z,99516.66
2022-12-31T02:21:44.627Z,99498.47
2022-12-31T02:23:52.326Z,99498.28
2022-12-31T02:25:59.060Z,99513.72
2022-12-31T02:28:08.032Z,99507.75
2022-12-31T02:30:02.748Z,99516.19
2022-12-31T02:32:00.155Z,99518.09
2022-12-31T02:33:50.877Z,99516.03
2022-12-31T02:35:46.822Z,99504.75
2022-12-31T02:37:32.114Z,99515.69
2022-12-31T02:39:14.495Z,99519.63
2022-12-31T02:40:56.337Z,99524.38
2022-12-31T02:42:37.619Z,99512.75
2022-12-31T02:44:24.928Z,99506.53
2022-12-31T02:46:24.670Z,99512.78
2022-12-31T02:48:15.959Z,99495.75
2022-12-31T02:50:15.520Z,99507.41
2022-12-31T02:52:36.069Z,99503.72
2022-12-31T02:54:26.449Z,66203.31
2022-12-31T02:56:27.924Z,66203.31
2022-12-31T02:59:00.382Z,99528.63
2022-12-31T03:01:07.793Z,99510.78
2022-12-31T03:02:51.810Z,99515.19
2022-12-31T03:04:33.973Z,99519.16
2022-12-31T03:06:15.820Z,66203.31
2022-12-31T03:07:57.133Z,99514.94
2022-12-31T03:09:39.079Z,66203.31
2022-12-31T03:11:40.412Z,66203.31
2022-12-31T03:13:21.676Z,66203.31
2022-12-31T03:15:06.541Z,99499.69
2022-12-31T03:16:49.072Z,99500.03
2022-12-31T03:18:48.986Z,66203.31
2022-12-31T03:21:11.211Z,66203.31
2022-12-31T03:22:52.550Z,66203.31
2022-12-31T03:24:52.647Z,66203.31
2022-12-31T03:26:35.705Z,66203.31
2022-12-31T03:28:20.211Z,99516.81
2022-12-31T03:30:01.569Z,66203.31
2022-12-31T03:31:42.924Z,66203.31
2022-12-31T03:33:25.722Z,66203.31
2022-12-31T03:35:07.943Z,66203.31
2022-12-31T03:36:49.300Z,66203.31
2022-12-31T03:38:30.638Z,66203.31
2022-12-31T03:40:14.229Z,66203.31
2022-12-31T03:41:55.558Z,66203.31
2022-12-31T03:43:36.898Z,66203.31
2022-12-31T03:45:18.968Z,66203.31
2022-12-31T03:47:00.286Z,66203.31
2022-12-31T03:48:41.587Z,66203.31
2022-12-31T03:50:22.964Z,66203.31
2022-12-31T03:52:06.335Z,66203.31
2022-12-31T03:53:47.625Z,66203.31
2022-12-31T03:55:28.916Z,99504.94
2022-12-31T03:57:10.575Z,99513.91
2022-12-31T03:58:51.851Z,99505.56
2022-12-31T04:00:33.557Z,99519.72
2022-12-31T04:02:15.071Z,99523.47
2022-12-31T04:03:56.781Z,99511.19
2022-12-31T04:05:38.093Z,99520.69
2022-12-31T04:07:19.419Z,99528.91
2022-12-31T04:09:00.724Z,99547.66
2022-12-31T04:10:42.040Z,99531.34
2022-12-31T04:12:23.696Z,99533.28
2022-12-31T04:14:05.037Z,66203.31
2022-12-31T04:15:49.991Z,66203.31
2022-12-31T04:17:31.432Z,99556.47
2022-12-31T04:19:13.229Z,66203.31
2022-12-31T04:20:54.567Z,66203.31
2022-12-31T04:22:35.874Z,66203.31
2022-12-31T04:24:18.463Z,66203.31
2022-12-31T04:25:59.746Z,66203.31
2022-12-31T04:27:43.503Z,66203.31
2022-12-31T04:29:25.009Z,99562.47
2022-12-31T04:31:06.322Z,66203.31
2022-12-31T04:32:47.627Z,66203.31
2022-12-31T04:34:29.086Z,99565.00
2022-12-31T04:36:10.410Z,66203.31
2022-12-31T04:37:51.712Z,99563.56
2022-12-31T04:39:33.003Z,99571.03
2022-12-31T04:41:17.198Z,66203.31
2022-12-31T04:42:58.524Z,66203.31
2022-12-31T04:44:39.816Z,66203.31
2022-12-31T04:49:29.235Z,99567.66
2022-12-31T04:51:11.055Z,66203.31
2022-12-31T04:54:43.358Z,99586.88
2022-12-31T04:57:09.800Z,66203.31
2022-12-31T04:59:36.120Z,66203.31
2022-12-31T05:02:02.764Z,99569.91
2022-12-31T05:04:29.401Z,99582.94
2022-12-31T05:06:55.704Z,66203.31
2022-12-31T05:09:24.036Z,66203.31
2022-12-31T05:11:50.424Z,66203.31
2022-12-31T05:14:17.208Z,66203.31
2022-12-31T05:16:43.650Z,99585.72
2022-12-31T05:19:09.973Z,99575.19
2022-12-31T05:21:36.672Z,99581.53
2022-12-31T05:24:03.001Z,66203.31
2022-12-31T05:26:29.477Z,66203.31
2022-12-31T05:28:56.499Z,99593.84
2022-12-31T05:31:22.987Z,99591.00
2022-12-31T05:33:49.351Z,99595.50
2022-12-31T05:36:15.765Z,99596.22
2022-12-31T05:38:42.283Z,99598.31
2022-12-31T05:41:08.591Z,99599.88
2022-12-31T05:43:36.291Z,99606.28
2022-12-31T05:46:04.458Z,99612.25
2022-12-31T05:48:31.851Z,99609.13
2022-12-31T05:50:58.542Z,99607.75
2022-12-31T05:53:25.046Z,66203.31
2022-12-31T05:55:51.473Z,66203.31
2022-12-31T05:58:18.214Z,66203.31
2022-12-31T06:00:44.864Z,99585.09
2022-12-31T06:01:49.728Z,99572.53
2022-12-31T06:01:56.235Z,66203.31
2022-12-31T06:02:02.559Z,66203.31
2022-12-31T06:02:08.844Z,66203.31
2022-12-31T06:02:15.259Z,66203.31
2022-12-31T06:02:22.373Z,66203.31
2022-12-31T06:02:29.881Z,66203.31
2022-12-31T06:02:36.467Z,66203.31
2022-12-31T06:02:42.853Z,66203.31
2022-12-31T06:02:49.250Z,66203.31
2022-12-31T06:02:55.823Z,66203.31
2022-12-31T06:03:02.379Z,66203.31
2022-12-31T06:03:09.741Z,66203.31
2022-12-31T06:03:16.279Z,66203.31
2022-12-31T06:03:22.828Z,66203.31
2022-12-31T06:07:01.591Z,99600.88
2022-12-31T06:07:07.867Z,99598.88
2022-12-31T06:07:14.883Z,99614.28
2022-12-31T06:07:21.186Z,99584.16
2022-12-31T06:07:27.550Z,99600.03
2022-12-31T06:07:34.461Z,99584.06
2022-12-31T06:07:43.523Z,99590.75
2022-12-31T06:07:49.802Z,99585.69
2022-12-31T06:07:56.099Z,99596.50
2022-12-31T06:08:02.490Z,99613.06
2022-12-31T06:08:10.196Z,99599.16
2022-12-31T06:08:16.573Z,99603.28
2022-12-31T06:08:23.870Z,99598.00
2022-12-31T06:08:30.201Z,99607.25
2022-12-31T06:08:51.416Z,99590.63
2022-12-31T06:08:57.705Z,99599.88
2022-12-31T06:09:04.078Z,99603.00
2022-12-31T06:09:10.406Z,99595.44
2022-12-31T06:09:28.993Z,66203.31
2022-12-31T06:09:35.298Z,66203.31
2022-12-31T06:09:41.749Z,66203.31
2022-12-31T06:10:00.465Z,66203.31
2022-12-31T06:10:07.198Z,66203.31
2022-12-31T06:10:13.516Z,66203.31
2022-12-31T06:10:19.842Z,66203.31
2022-12-31T08:39:03.338Z,99781.31
2022-12-31T08:41:43.102Z,99773.28
2022-12-31T08:44:44.941Z,99785.16
2022-12-31T08:47:37.014Z,99777.53
2022-12-31T08:50:05.456Z,99786.22
2022-12-31T08:52:32.068Z,99781.50
2022-12-31T08:54:59.114Z,99774.72
2022-12-31T08:57:45.973Z,99778.66
2022-12-31T09:00:15.640Z,99776.03
2022-12-31T09:03:03.956Z,99778.78
2022-12-31T09:05:58.165Z,99773.69
2022-12-31T09:08:58.761Z,99775.69
2022-12-31T09:11:56.083Z,99779.25
2022-12-31T09:14:44.405Z,99780.25
2022-12-31T09:17:34.883Z,99783.41
2022-12-31T09:20:01.441Z,99783.50
2022-12-31T09:22:27.945Z,99788.31
2022-12-31T09:24:54.591Z,99782.41
2022-12-31T09:27:37.943Z,99796.03
2022-12-31T09:30:16.181Z,99790.59
2022-12-31T09:33:00.875Z,99786.94
2022-12-31T09:35:39.735Z,99809.47
2022-12-31T09:38:13.510Z,99793.66
2022-12-31T09:41:12.351Z,99798.53
2022-12-31T09:43:58.961Z,99802.03
2022-12-31T09:46:47.737Z,99795.09
2022-12-31T09:49:23.346Z,99826.19
2022-12-31T09:52:27.498Z,99822.53
2022-12-31T09:55:02.821Z,99801.25
2022-12-31T09:57:40.280Z,99807.63
2022-12-31T10:00:30.010Z,99815.28
2022-12-31T10:03:35.472Z,99813.03
2022-12-31T10:06:33.379Z,99817.91
2022-12-31T10:09:26.195Z,99808.66
2022-12-31T10:12:14.473Z,99813.84
2022-12-31T10:14:56.627Z,99824.72
2022-12-31T10:17:49.101Z,99834.59
2022-12-31T10:20:45.562Z,99812.03
2022-12-31T10:23:36.639Z,99818.44
2022-12-31T10:26:26.776Z,99797.88
2022-12-31T10:29:10.221Z,99799.78
2022-12-31T10:32:03.449Z,99807.41
2022-12-31T10:34:53.559Z,99796.81
2022-12-31T10:37:39.194Z,99785.84
2022-12-31T10:40:24.352Z,99797.66
2022-12-31T10:43:20.263Z,99803.56
2022-12-31T10:46:22.684Z,99810.47
2022-12-31T10:49:11.664Z,99806.69
2022-12-31T10:51:56.785Z,99819.69
2022-12-31T10:54:37.385Z,99819.59
2022-12-31T10:57:13.017Z,99805.66
2022-12-31T11:00:10.330Z,99820.97
2022-12-31T11:03:22.159Z,99803.19
2022-12-31T11:05:57.608Z,99805.25
2022-12-31T11:08:53.760Z,99809.81
2022-12-31T11:11:25.951Z,99802.44
2022-12-31T11:14:20.822Z,99815.16
2022-12-31T11:17:24.870Z,99815.69
2022-12-31T11:20:10.621Z,99814.34
2022-12-31T11:22:56.444Z,99820.31
2022-12-31T11:25:41.699Z,99827.81
2022-12-31T11:28:29.372Z,99829.16
2022-12-31T11:30:58.705Z,99824.38
2022-12-31T11:33:58.889Z,99815.41
2022-12-31T11:36:47.446Z,99812.59
2022-12-31T11:39:35.457Z,99803.47
2022-12-31T11:42:14.239Z,99810.16
2022-12-31T11:44:53.573Z,99811.88
2022-12-31T11:48:28.396Z,99822.13
2022-12-31T11:50:54.972Z,99799.66
2022-12-31T11:53:32.315Z,99809.59
2022-12-31T11:56:18.769Z,99797.19
2022-12-31T11:58:51.124Z,99791.94
2022-12-31T12:01:24.554Z,99781.41
2022-12-31T12:03:50.915Z,99772.00
2022-12-31T12:06:23.680Z,99788.09
2022-12-31T12:08:50.179Z,99782.06
2022-12-31T12:11:25.853Z,99775.69
2022-12-31T12:13:52.195Z,99784.50
2022-12-31T12:16:21.176Z,99785.41
2022-12-31T12:18:51.107Z,99787.31
2022-12-31T12:21:21.424Z,99792.69
2022-12-31T12:23:56.540Z,99801.59
2022-12-31T12:26:41.522Z,99798.00
2022-12-31T12:29:28.092Z,99792.75
2022-12-31T12:31:59.461Z,99780.59
2022-12-31T12:34:29.390Z,99772.19
2022-12-31T12:36:55.902Z,99774.13
2022-12-31T12:39:25.455Z,99754.47
2022-12-31T12:42:12.525Z,99761.97
2022-12-31T12:44:40.074Z,99770.38
2022-12-31T12:47:13.446Z,99783.69
2022-12-31T12:49:44.050Z,99771.88
2022-12-31T12:52:16.121Z,99773.38
2022-12-31T12:55:09.046Z,99774.56
2022-12-31T12:58:04.925Z,99764.84
2022-12-31T13:00:40.017Z,99779.22
2022-12-31T13:03:26.203Z,99775.59
2022-12-31T13:06:22.935Z,99757.41
2022-12-31T13:09:02.961Z,99778.63
2022-12-31T13:11:29.371Z,99783.88
2022-12-31T13:14:03.845Z,99766.25
2022-12-31T13:16:43.898Z,99772.31
2022-12-31T13:19:29.862Z,99759.69
2022-12-31T13:22:02.220Z,99767.88
2022-12-31T13:24:42.100Z,99761.78
2022-12-31T13:27:27.199Z,99763.31
2022-12-31T13:29:57.639Z,99768.22
2022-12-31T13:32:34.859Z,99772.31
2022-12-31T13:35:16.914Z,99770.56
2022-12-31T13:37:45.034Z,99760.75
2022-12-31T13:40:55.201Z,99750.59
2022-12-31T13:43:50.651Z,99748.81
2022-12-31T13:46:35.276Z,99741.84
2022-12-31T13:49:06.390Z,99748.72
2022-12-31T13:51:47.744Z,99733.34
2022-12-31T13:54:38.030Z,99745.25
2022-12-31T13:57:41.970Z,99744.53
2022-12-31T14:00:20.995Z,99736.22
2022-12-31T14:02:55.046Z,99737.06
2022-12-31T14:05:46.776Z,99737.25
2022-12-31T14:08:13.135Z,99733.19
2022-12-31T14:10:48.606Z,99718.47
2022-12-31T14:13:47.682Z,99721.88
2022-12-31T14:16:19.856Z,99724.75
2022-12-31T14:19:01.558Z,99726.13
2022-12-31T14:21:42.187Z,99734.34
2022-12-31T14:24:49.718Z,99722.75
2022-12-31T14:27:29.620Z,99736.91
2022-12-31T14:30:03.062Z,99750.13
2022-12-31T14:32:57.298Z,99746.63
2022-12-31T14:35:45.384Z,99759.00
2022-12-31T14:38:37.281Z,99761.66
2022-12-31T14:41:18.454Z,99767.34
2022-12-31T14:43:59.905Z,99781.34
2022-12-31T14:47:03.716Z,99778.75
2022-12-31T14:49:42.358Z,99790.03
2022-12-31T14:52:33.387Z,99776.38
2022-12-31T14:55:08.906Z,99775.53
2022-12-31T14:58:01.610Z,99785.03
2022-12-31T15:00:34.994Z,99789.13
2022-12-31T15:03:23.263Z,99794.81
2022-12-31T15:05:54.520Z,99784.34
2022-12-31T15:08:48.284Z,99792.97
2022-12-31T15:11:27.098Z,99782.69
2022-12-31T15:14:38.827Z,99787.91
2022-12-31T15:17:39.500Z,99790.84
2022-12-31T15:20:18.072Z,99793.75
2022-12-31T15:22:51.971Z,99793.25
2022-12-31T15:25:21.283Z,99785.69
2022-12-31T15:27:48.820Z,99786.13
2022-12-31T15:30:36.862Z,99798.78
2022-12-31T15:33:37.681Z,99791.25
2022-12-31T15:36:18.796Z,99798.53
2022-12-31T15:38:45.772Z,99802.19
2022-12-31T15:41:46.057Z,99800.06
2022-12-31T15:44:31.371Z,99806.75
2022-12-31T15:47:25.610Z,99802.63
2022-12-31T15:49:55.306Z,99795.41
2022-12-31T15:52:32.345Z,99803.72
2022-12-31T15:55:03.693Z,99806.34
2022-12-31T15:57:40.579Z,99811.91
2022-12-31T16:00:15.996Z,99804.88
2022-12-31T16:02:43.129Z,99810.25
2022-12-31T16:05:27.164Z,99818.63
2022-12-31T16:07:58.242Z,99816.00
2022-12-31T16:10:28.114Z,99808.44
2022-12-31T16:12:57.075Z,99809.75
2022-12-31T16:15:28.169Z,99801.09
2022-12-31T16:18:10.671Z,99805.63
2022-12-31T16:20:42.826Z,99809.81
2022-12-31T16:23:24.128Z,99814.25
2022-12-31T16:25:53.791Z,99817.16
2022-12-31T16:28:23.257Z,99818.84
2022-12-31T16:31:05.633Z,99823.94
2022-12-31T16:33:32.303Z,99809.25
2022-12-31T16:36:01.326Z,99820.81
2022-12-31T16:38:36.598Z,99820.16
2022-12-31T16:41:02.883Z,99826.66
2022-12-31T16:43:40.593Z,99822.25
2022-12-31T16:46:15.919Z,99820.28
2022-12-31T16:49:12.644Z,99828.31
2022-12-31T16:51:39.492Z,99828.88
2022-12-31T16:54:19.244Z,99820.88
2022-12-31T16:56:45.838Z,99822.06
2022-12-31T16:59:23.280Z,99815.00
2022-12-31T17:01:50.909Z,99815.59
2022-12-31T17:04:20.710Z,99806.13
2022-12-31T17:06:47.568Z,99816.16
2022-12-31T17:09:33.448Z,99812.03
2022-12-31T17:12:16.508Z,99813.69
2022-12-31T17:14:51.776Z,99821.44
2022-12-31T17:17:25.561Z,99815.69
2022-12-31T17:19:58.552Z,99823.91
2022-12-31T17:22:36.685Z,99822.78
2022-12-31T17:25:30.879Z,99820.28
2022-12-31T17:28:00.106Z,99810.56
2022-12-31T17:30:29.483Z,99817.63
2022-12-31T17:33:24.837Z,99810.06
2022-12-31T17:36:14.983Z,99816.16
2022-12-31T17:38:42.203Z,99812.53
2022-12-31T17:41:08.460Z,99801.84
2022-12-31T17:43:38.855Z,99822.56
2022-12-31T17:46:11.702Z,99807.50
2022-12-31T17:48:38.286Z,99819.63
2022-12-31T17:51:04.639Z,99823.88
2022-12-31T17:53:30.909Z,99823.22
2022-12-31T17:56:04.416Z,99814.34
2022-12-31T17:58:35.456Z,99826.81
2022-12-31T18:01:06.189Z,99835.56
2022-12-31T18:03:32.642Z,99819.94
2022-12-31T18:05:58.970Z,99836.84
2022-12-31T18:08:25.304Z,99836.03
2022-12-31T18:10:53.247Z,99829.97
2022-12-31T18:13:28.450Z,99826.34
2022-12-31T18:15:55.127Z,99837.19
2022-12-31T18:18:27.821Z,99843.44
2022-12-31T18:20:58.673Z,99845.91
2022-12-31T18:23:34.883Z,99845.41
2022-12-31T18:26:01.202Z,99855.94
2022-12-31T18:28:27.499Z,99850.84
2022-12-31T18:30:53.968Z,99859.06
2022-12-31T18:33:25.052Z,99865.94
2022-12-31T18:36:09.552Z,99867.44
2022-12-31T18:38:36.446Z,99871.25
2022-12-31T18:41:02.829Z,99862.88
2022-12-31T18:43:29.141Z,99867.81
2022-12-31T18:45:55.642Z,99865.84
2022-12-31T18:48:22.037Z,99876.19
2022-12-31T18:50:48.640Z,99876.03
2022-12-31T18:53:17.343Z,99889.50
2022-12-31T18:55:52.679Z,99879.97
2022-12-31T18:58:19.360Z,99883.09
2022-12-31T19:00:47.076Z,99877.19
2022-12-31T19:03:21.022Z,99873.56
2022-12-31T19:05:49.780Z,99880.16
2022-12-31T19:08:21.395Z,99884.59
2022-12-31T19:10:49.290Z,99888.03
2022-12-31T19:13:17.639Z,99869.63
2022-12-31T19:15:49.449Z,99872.56
2022-12-31T19:18:16.389Z,99878.31
2022-12-31T19:20:42.779Z,99875.53
2022-12-31T19:23:16.841Z,99876.53
2022-12-31T19:25:44.348Z,99864.84
2022-12-31T19:28:29.365Z,99871.06
2022-12-31T19:30:55.715Z,99878.94
2022-12-31T19:33:22.368Z,99879.63
2022-12-31T19:35:49.001Z,99882.28
2022-12-31T19:38:24.046Z,99868.94
2022-12-31T19:40:52.131Z,99867.31
2022-12-31T19:43:20.780Z,99873.84
2022-12-31T19:45:47.934Z,99865.34
2022-12-31T19:48:16.720Z,99872.75
2022-12-31T19:50:46.169Z,99872.25
2022-12-31T19:53:15.293Z,99865.84
2022-12-31T19:55:41.963Z,99862.22
2022-12-31T19:58:15.381Z,99862.53
2022-12-31T20:00:41.716Z,99874.41
2022-12-31T20:03:10.937Z,99873.75
2022-12-31T20:05:37.423Z,99878.19
2022-12-31T20:08:03.871Z,99874.56
2022-12-31T20:10:30.469Z,99887.84
2022-12-31T20:12:56.809Z,99890.81
2022-12-31T20:15:23.086Z,99887.69
2022-12-31T20:17:49.443Z,99881.13
2022-12-31T20:20:15.898Z,99881.44
2022-12-31T20:22:42.239Z,99890.47
2022-12-31T20:25:09.211Z,99886.22
2022-12-31T20:27:35.666Z,99884.75
2022-12-31T20:30:02.151Z,99887.69
2022-12-31T20:32:28.444Z,99889.50
2022-12-31T20:34:54.746Z,99889.19
2022-12-31T20:37:21.121Z,99892.13
2022-12-31T20:39:47.478Z,99879.31
2022-12-31T20:42:13.847Z,99877.66
2022-12-31T20:44:40.134Z,99890.81
2022-12-31T20:47:06.480Z,99890.97
2022-12-31T20:50:01.285Z,99896.06
2022-12-31T20:52:19.190Z,99889.81
2022-12-31T20:54:45.466Z,99885.88
2022-12-31T20:57:11.756Z,99882.25
2022-12-31T20:59:38.200Z,99883.09
2022-12-31T21:02:21.136Z,99880.28
2022-12-31T21:04:48.183Z,99886.38
2022-12-31T21:07:14.694Z,99885.88
2022-12-31T21:09:41.036Z,99879.78
2022-12-31T21:12:29.445Z,99878.50
2022-12-31T21:14:56.073Z,99893.75
2022-12-31T21:17:22.387Z,99886.84
2022-12-31T21:19:48.767Z,99895.38
2022-12-31T21:22:15.259Z,99886.88
2022-12-31T21:24:41.501Z,99896.22
2022-12-31T21:27:07.884Z,99901.31
2022-12-31T21:29:34.928Z,99889.13
2022-12-31T21:32:01.924Z,99892.25
2022-12-31T21:34:28.349Z,99900.97
2022-12-31T21:36:54.661Z,99905.25
2022-12-31T21:39:21.097Z,99907.88
2022-12-31T21:41:53.111Z,99904.94
2022-12-31T21:44:25.059Z,99905.41
2022-12-31T21:47:45.465Z,99910.50
2022-12-31T21:50:09.104Z,99921.03
2022-12-31T21:52:35.490Z,99922.22
2022-12-31T21:55:23.310Z,99920.22
2022-12-31T22:00:55.689Z,99929.25
2022-12-31T22:03:24.742Z,99931.38
2022-12-31T22:06:12.364Z,99936.66
2022-12-31T22:08:43.814Z,99939.13
2022-12-31T22:11:11.960Z,99947.34
2022-12-31T22:13:38.708Z,99957.50
2022-12-31T22:16:06.411Z,99953.06
2022-12-31T22:18:38.900Z,99952.88
2022-12-31T22:21:19.995Z,99957.81
2022-12-31T22:23:54.475Z,99965.06
2022-12-31T22:26:24.117Z,99967.03
2022-12-31T22:28:51.413Z,99951.91
2022-12-31T22:31:26.389Z,99970.31
2022-12-31T22:33:53.851Z,99966.03
2022-12-31T22:36:22.769Z,99969.47
2022-12-31T22:38:51.054Z,99972.28
2022-12-31T22:41:22.301Z,99966.88
2022-12-31T22:43:57.204Z,99975.41
2022-12-31T22:46:28.820Z,99983.09
2022-12-31T22:48:57.831Z,99976.50
2022-12-31T22:51:24.194Z,99974.84
2022-12-31T22:53:50.590Z,99982.72
2022-12-31T22:56:18.792Z,99984.06
2022-12-31T22:58:45.515Z,99990.13
2022-12-31T23:01:20.274Z,99986.81
2022-12-31T23:03:55.049Z,99996.00
2022-12-31T23:06:23.314Z,99988.44
2022-12-31T23:09:09.272Z,99996.22
2022-12-31T23:11:37.245Z,99990.97
2022-12-31T23:14:23.823Z,99994.13
2022-12-31T23:17:29.801Z,99987.09
2022-12-31T23:20:14.131Z,100004.50
2022-12-31T23:22:58.853Z,100010.88
2022-12-31T23:25:25.188Z,100002.25
2022-12-31T23:27:51.528Z,100012.22
2022-12-31T23:30:17.988Z,100010.88
2022-12-31T23:32:44.424Z,100006.06
2022-12-31T23:35:10.786Z,100010.84
2022-12-31T23:37:37.129Z,100005.94
2022-12-31T23:40:03.972Z,100010.16
2022-12-31T23:42:30.330Z,100007.91
2022-12-31T23:44:56.721Z,99997.09
2022-12-31T23:47:23.094Z,100003.03
2022-12-31T23:49:49.392Z,99988.09
2022-12-31T23:52:15.732Z,99996.94
2022-12-31T23:54:42.053Z,99997.47
2022-12-31T23:57:08.504Z,99996.31
2022-12-31T23:59:34.814Z,100003.25
